Time;durP1;ratioP1;P1;durP2;ratioP2;P2;SDS_P1;SDS_P2;PMS_P1;PMS_P2;Temp;Humidity;BMP_temperature;BMP_pressure;BME280_temperature;BME280_humidity;BME280_pressure;Samples;Min_cycle;Max_cycle;Signal;HPM_P1;HPM_P2
2023/01/02 00:01:50;;;;;;;;;;;30.30;90.30;;;;;;5068420;28;20026;-78
2023/01/02 00:04:16;;;;;;;;;;;30.40;90.20;;;;;;5068127;28;19971;-83
2023/01/02 00:06:43;;;;;;;;;;;30.70;90.40;;;;;;5069537;28;19916;-77
2023/01/02 00:09:10;;;;;;;;;;;31.00;90.00;;;;;;5065214;28;20011;-73
2023/01/02 00:11:37;;;;;;;;;;;30.90;88.70;;;;;;5062731;28;19917;-77
2023/01/02 00:14:03;;;;;;;;;;;30.50;88.80;;;;;;5064747;28;20358;-75
2023/01/02 00:16:30;;;;;;;;;;;30.50;88.90;;;;;;5064682;28;19934;-77
2023/01/02 00:18:57;;;;;;;;;;;30.60;89.60;;;;;;5066405;28;19925;-74
2023/01/02 00:21:23;;;;;;;;;;;30.60;90.10;;;;;;5068072;28;20019;-78
2023/01/02 00:23:50;;;;;;;;;;;30.80;89.10;;;;;;5069863;28;19913;-78
2023/01/02 00:26:17;;;;;;;;;;;30.90;90.00;;;;;;5068003;28;19912;-80
2023/01/02 00:28:43;;;;;;;;;;;31.20;90.10;;;;;;5064852;28;19946;-76
2023/01/02 00:31:11;;;;;;;;;;;31.20;87.90;;;;;;5067867;28;19919;-78
2023/01/02 00:33:38;;;;;;;;;;;30.90;87.70;;;;;;5067059;28;19981;-77
2023/01/02 00:36:09;;;;;;;;;;;30.90;87.80;;;;;;5068777;28;19980;-77
2023/01/02 00:38:36;;;;;;;;;;;31.10;87.90;;;;;;5048944;28;20394;-78
2023/01/02 00:41:03;;;;;;;;;;;31.30;87.30;;;;;;5051954;28;19912;-77
2023/01/02 00:43:30;;;;;;;;;;;31.40;86.10;;;;;;5046025;28;19955;-76
2023/01/02 00:45:56;;;;;;;;;;;31.60;87.00;;;;;;5033486;28;19920;-74
2023/01/02 00:48:23;;;;;;;;;;;31.70;87.00;;;;;;5049961;28;19913;-78
2023/01/02 00:50:50;;;;;;;;;;;31.70;86.70;;;;;;5055828;28;19917;-81
2023/01/02 00:53:16;;;;;;;;;;;31.70;85.40;;;;;;5052427;28;19946;-78
2023/01/02 00:55:44;;;;;;;;;;;31.80;87.90;;;;;;5048220;28;19919;-78
2023/01/02 00:58:11;;;;;;;;;;;32.10;85.20;;;;;;5051068;28;19970;-79
2023/01/02 01:00:38;;;;;;;;;;;32.10;83.00;;;;;;5049430;28;19936;-77
2023/01/02 01:03:04;;;;;;;;;;;32.00;84.40;;;;;;5051375;28;20073;-77
2023/01/02 01:05:31;;;;;;;;;;;32.10;83.80;;;;;;5049965;28;19912;-76
2023/01/02 01:07:58;;;;;;;;;;;32.40;84.30;;;;;;5051491;28;20019;-81
2023/01/02 01:10:25;;;;;;;;;;;32.90;84.00;;;;;;5051425;28;20524;-80
2023/01/02 01:12:52;;;;;;;;;;;33.10;84.00;;;;;;5050090;28;19921;-81
2023/01/02 01:15:18;;;;;;;;;;;33.10;83.60;;;;;;5050230;28;19913;-80
2023/01/02 01:17:45;;;;;;;;;;;33.40;82.70;;;;;;5049271;28;19927;-77
2023/01/02 01:20:12;;;;;;;;;;;33.70;82.90;;;;;;5052085;28;20007;-79
2023/01/02 01:22:38;;;;;;;;;;;33.50;82.10;;;;;;5047604;28;19913;-75
2023/01/02 01:25:05;;;;;;;;;;;33.40;82.00;;;;;;5043491;28;19962;-78
2023/01/02 01:27:32;;;;;;;;;;;33.40;82.10;;;;;;5049133;28;19917;-73
2023/01/02 01:29:59;;;;;;;;;;;33.50;82.30;;;;;;5056517;28;19948;-77
2023/01/02 01:32:27;;;;;;;;;;;33.80;80.50;;;;;;5030672;28;19928;-79
2023/01/02 01:34:54;;;;;;;;;;;33.60;80.80;;;;;;5048962;28;19917;-80
2023/01/02 01:37:20;;;;;;;;;;;33.50;80.50;;;;;;5056179;28;20367;-75
2023/01/02 01:39:47;;;;;;;;;;;33.40;80.60;;;;;;5059081;28;19946;-77
2023/01/02 01:42:15;;;;;;;;;;;33.50;80.20;;;;;;5063907;28;19952;-79
2023/01/02 01:44:46;;;;;;;;;;;33.60;79.40;;;;;;5067544;28;20369;-76
2023/01/02 01:47:12;;;;;;;;;;;33.60;80.60;;;;;;5064541;28;20015;-76
2023/01/02 01:49:39;;;;;;;;;;;33.80;79.70;;;;;;5063435;28;19923;-77
2023/01/02 01:52:08;;;;;;;;;;;34.00;79.80;;;;;;5063596;28;19928;-76
2023/01/02 01:54:38;;;;;;;;;;;34.20;77.50;;;;;;5067379;28;20016;-74
2023/01/02 01:57:17;;;;;;;;;;;33.90;78.60;;;;;;5061904;28;19950;-76
2023/01/02 01:59:44;;;;;;;;;;;33.70;77.70;;;;;;5055862;28;19928;-76
2023/01/02 02:02:11;;;;;;;;;;;33.50;79.00;;;;;;5067593;28;20031;-74
2023/01/02 02:04:38;;;;;;;;;;;33.70;79.20;;;;;;5062800;28;19995;-77
2023/01/02 02:07:04;;;;;;;;;;;33.90;78.60;;;;;;5062412;28;19920;-78
2023/01/02 02:09:34;;;;;;;;;;;33.70;78.60;;;;;;5066861;28;20446;-80
2023/01/02 02:12:01;;;;;;;;;;;33.80;79.50;;;;;;5069211;28;19920;-77
2023/01/02 02:14:28;;;;;;;;;;;34.30;80.60;;;;;;5065830;28;19931;-79
2023/01/02 02:17:06;;;;;;;;;;;34.70;78.20;;;;;;5057706;28;19920;-75
2023/01/02 02:19:51;;;;;;;;;;;34.80;75.70;;;;;;5066066;28;19928;-77
2023/01/02 02:22:27;;;;;;;;;;;34.50;76.20;;;;;;5062461;28;19924;-81
2023/01/02 02:24:57;;;;;;;;;;;34.40;76.50;;;;;;5068238;28;19947;-81
2023/01/02 02:27:42;;;;;;;;;;;34.60;75.90;;;;;;5066289;28;19954;-78
2023/01/02 02:30:22;;;;;;;;;;;34.60;76.80;;;;;;5063087;28;19920;-80
2023/01/02 02:32:58;;;;;;;;;;;34.80;76.10;;;;;;5064199;28;20232;-81
2023/01/02 02:35:25;;;;;;;;;;;34.60;77.10;;;;;;5068817;28;19920;-75
2023/01/02 02:37:59;;;;;;;;;;;34.70;77.10;;;;;;5065497;28;19928;-84
2023/01/02 02:40:26;;;;;;;;;;;34.90;76.20;;;;;;5064232;28;19912;-78
2023/01/02 02:43:10;;;;;;;;;;;35.30;78.60;;;;;;5063716;28;19920;-79
2023/01/02 02:46:08;;;;;;;;;;;35.60;75.20;;;;;;5069346;28;19913;-78
2023/01/02 02:48:47;;;;;;;;;;;35.70;74.20;;;;;;5031254;28;20679;-77
2023/01/02 02:51:26;;;;;;;;;;;35.60;74.40;;;;;;5054569;28;19963;-76
2023/01/02 02:54:00;;;;;;;;;;;35.60;75.30;;;;;;5066107;28;19913;-77
2023/01/02 02:56:27;;;;;;;;;;;35.60;74.50;;;;;;5068117;28;19985;-74
2023/01/02 02:58:54;;;;;;;;;;;35.60;74.50;;;;;;5066421;28;20327;-82
2023/01/02 03:01:24;;;;;;;;;;;35.30;74.10;;;;;;5066713;28;19920;-76
2023/01/02 03:03:50;;;;;;;;;;;35.30;73.30;;;;;;5067629;28;19920;-82
2023/01/02 03:06:17;;;;;;;;;;;35.10;74.30;;;;;;5065130;28;22481;-78
2023/01/02 03:08:44;;;;;;;;;;;35.30;74.30;;;;;;5068449;28;19921;-80
2023/01/02 03:11:11;;;;;;;;;;;35.40;74.30;;;;;;5066082;28;20320;-81
2023/01/02 03:14:16;;;;;;;;;;;35.90;74.10;;;;;;5070080;28;20366;-81
2023/01/02 03:16:46;;;;;;;;;;;36.30;73.40;;;;;;5033589;28;20434;-81
2023/01/02 03:19:17;;;;;;;;;;;36.70;73.00;;;;;;5029336;28;20011;-80
2023/01/02 03:21:56;;;;;;;;;;;36.50;72.40;;;;;;5048803;28;19938;-81
2023/01/02 03:24:25;;;;;;;;;;;36.20;72.70;;;;;;5072659;28;20270;-77
2023/01/02 03:26:54;;;;;;;;;;;35.80;72.70;;;;;;5072582;28;19924;-80
2023/01/02 03:29:30;;;;;;;;;;;35.30;73.30;;;;;;5064425;28;19956;-78
2023/01/02 03:31:57;;;;;;;;;;;35.30;73.70;;;;;;5070126;28;19912;-75
2023/01/02 03:34:25;;;;;;;;;;;35.60;74.40;;;;;;5070514;28;19916;-75
2023/01/02 03:36:57;;;;;;;;;;;36.00;73.60;;;;;;5067726;28;19920;-73
2023/01/02 03:39:28;;;;;;;;;;;36.30;72.70;;;;;;5071922;28;20359;-77
2023/01/02 03:41:54;;;;;;;;;;;36.30;72.30;;;;;;5061923;28;19946;-78
2023/01/02 03:44:23;;;;;;;;;;;36.40;72.30;;;;;;5067788;28;19919;-81
2023/01/02 03:47:08;;;;;;;;;;;36.00;71.80;;;;;;5073037;28;19932;-81
2023/01/02 03:49:38;;;;;;;;;;;35.60;72.50;;;;;;5070876;28;19916;-78
2023/01/02 03:52:05;;;;;;;;;;;35.80;74.40;;;;;;5068860;28;20354;-82
2023/01/02 03:54:31;;;;;;;;;;;35.90;72.90;;;;;;5070690;28;19917;-77
2023/01/02 03:57:01;;;;;;;;;;;35.70;72.50;;;;;;5070326;28;20004;-84
2023/01/02 03:59:27;;;;;;;;;;;35.80;73.20;;;;;;5069687;28;19967;-81
2023/01/02 04:01:54;;;;;;;;;;;36.00;72.50;;;;;;5070225;28;19920;-81
2023/01/02 04:04:26;;;;;;;;;;;36.20;73.60;;;;;;5070060;28;19920;-82
2023/01/02 04:06:55;;;;;;;;;;;36.50;73.90;;;;;;5082766;28;19932;-78
2023/01/02 04:09:24;;;;;;;;;;;36.60;72.50;;;;;;5066353;28;20359;-80
2023/01/02 04:11:55;;;;;;;;;;;36.60;76.80;;;;;;5068584;28;19923;-78
2023/01/02 04:14:34;;;;;;;;;;;36.40;76.10;;;;;;5066257;28;19934;-78
2023/01/02 04:17:03;;;;;;;;;;;36.20;77.30;;;;;;5083265;28;19916;-81
2023/01/02 04:19:40;;;;;;;;;;;36.20;77.30;;;;;;5068530;28;19927;-81
2023/01/02 04:22:09;;;;;;;;;;;35.70;76.00;;;;;;5065538;28;19991;-81
2023/01/02 04:24:38;;;;;;;;;;;35.60;78.40;;;;;;5068639;28;19912;-78
2023/01/02 04:27:11;;;;;;;;;;;35.60;78.80;;;;;;5063812;28;19912;-82
2023/01/02 04:29:38;;;;;;;;;;;35.70;77.10;;;;;;5065902;28;19912;-84
2023/01/02 04:32:11;;;;;;;;;;;35.70;77.60;;;;;;5065434;28;19912;-80
2023/01/02 04:34:38;;;;;;;;;;;35.70;77.70;;;;;;5059299;28;20354;-79
2023/01/02 04:37:04;;;;;;;;;;;35.60;77.90;;;;;;5060009;28;19939;-76
2023/01/02 04:39:32;;;;;;;;;;;35.50;77.90;;;;;;5062850;28;19932;-78
2023/01/02 04:41:59;;;;;;;;;;;35.40;78.50;;;;;;5074987;28;19964;-76
2023/01/02 04:44:26;;;;;;;;;;;35.20;78.70;;;;;;5069206;28;19916;-73
2023/01/02 04:46:53;;;;;;;;;;;34.70;78.60;;;;;;5076794;28;19916;-72
2023/01/02 04:49:21;;;;;;;;;;;34.30;79.70;;;;;;5070566;28;20463;-73
2023/01/02 04:51:48;;;;;;;;;;;34.20;79.80;;;;;;5071981;28;19920;-73
2023/01/02 04:54:14;;;;;;;;;;;34.30;78.90;;;;;;5071303;28;19923;-74
2023/01/02 04:56:41;;;;;;;;;;;34.20;79.90;;;;;;5067396;28;20005;-73
2023/01/02 04:59:08;;;;;;;;;;;34.10;79.60;;;;;;5067320;28;19960;-72
2023/01/02 05:01:35;;;;;;;;;;;33.90;80.20;;;;;;5070337;28;19923;-71
2023/01/02 05:04:01;;;;;;;;;;;33.90;80.40;;;;;;5070841;28;19912;-73
2023/01/02 05:06:28;;;;;;;;;;;33.60;80.70;;;;;;5065904;28;19912;-73
2023/01/02 05:08:54;;;;;;;;;;;33.40;81.60;;;;;;5064816;28;19958;-72
2023/01/02 05:11:21;;;;;;;;;;;33.00;81.50;;;;;;5067726;28;19913;-73
2023/01/02 05:13:48;;;;;;;;;;;32.80;82.10;;;;;;5069196;28;19913;-75
2023/01/02 05:16:14;;;;;;;;;;;32.80;82.90;;;;;;5070244;28;20447;-72
2023/01/02 05:18:41;;;;;;;;;;;32.90;82.20;;;;;;5064283;28;19985;-74
2023/01/02 05:23:59;;;;;;;;;;;32.70;82.20;;;;;;5060334;28;19912;-72
2023/01/02 05:26:26;;;;;;;;;;;32.40;82.90;;;;;;5068623;28;19912;-74
2023/01/02 05:28:54;;;;;;;;;;;32.30;83.60;;;;;;5070241;28;19934;-72
2023/01/02 05:31:20;;;;;;;;;;;32.20;83.60;;;;;;5098089;28;19984;-74
2023/01/02 05:33:53;;;;;;;;;;;32.30;83.80;;;;;;5067849;28;20381;-73
2023/01/02 05:36:21;;;;;;;;;;;32.30;83.30;;;;;;5068503;28;19927;-73
2023/01/02 05:38:51;;;;;;;;;;;32.50;83.10;;;;;;5068306;28;20290;-75
2023/01/02 05:41:18;;;;;;;;;;;32.20;83.50;;;;;;5069843;28;19959;-71
2023/01/02 05:43:45;;;;;;;;;;;32.10;84.10;;;;;;5069596;28;19913;-74
2023/01/02 05:46:18;;;;;;;;;;;31.70;84.10;;;;;;5060115;28;19923;-73
2023/01/02 05:48:45;;;;;;;;;;;31.30;85.40;;;;;;5067685;28;19912;-75
2023/01/02 05:51:14;;;;;;;;;;;31.10;85.70;;;;;;5069787;28;20359;-73
2023/01/02 05:53:40;;;;;;;;;;;30.90;86.20;;;;;;5068621;28;19935;-74
2023/01/02 05:56:12;;;;;;;;;;;30.90;85.70;;;;;;5066477;28;19912;-75
2023/01/02 05:58:39;;;;;;;;;;;30.80;86.20;;;;;;5064091;28;20367;-71
2023/01/02 06:01:07;;;;;;;;;;;30.60;86.50;;;;;;5066663;28;19913;-72
2023/01/02 06:03:34;;;;;;;;;;;30.50;86.90;;;;;;5057282;28;19912;-74
2023/01/02 06:06:08;;;;;;;;;;;30.50;87.20;;;;;;5069581;28;20339;-72
2023/01/02 06:08:35;;;;;;;;;;;30.50;86.90;;;;;;5066009;28;19913;-73
2023/01/02 06:11:02;;;;;;;;;;;30.30;87.10;;;;;;5065767;28;19920;-72
2023/01/02 06:13:29;;;;;;;;;;;30.20;87.80;;;;;;5063821;28;19916;-71
2023/01/02 06:15:57;;;;;;;;;;;30.10;87.60;;;;;;5068129;28;19912;-73
2023/01/02 06:18:24;;;;;;;;;;;30.00;87.90;;;;;;5069666;28;19920;-72
2023/01/02 06:20:50;;;;;;;;;;;29.80;88.30;;;;;;5062278;28;19916;-72
2023/01/02 06:23:18;;;;;;;;;;;29.70;88.90;;;;;;5058348;28;19920;-75
2023/01/02 06:25:44;;;;;;;;;;;29.70;89.50;;;;;;5062983;28;19932;-74
2023/01/02 06:28:11;;;;;;;;;;;29.70;89.40;;;;;;5060572;28;20046;-70
2023/01/02 06:30:38;;;;;;;;;;;29.60;89.40;;;;;;5059708;28;19999;-74
2023/01/02 06:33:04;;;;;;;;;;;29.60;90.00;;;;;;5062366;28;19940;-72
2023/01/02 06:35:31;;;;;;;;;;;29.50;89.90;;;;;;5060645;28;19921;-70
2023/01/02 06:37:58;;;;;;;;;;;29.30;90.10;;;;;;5061544;28;19935;-71
2023/01/02 06:40:25;;;;;;;;;;;29.40;90.30;;;;;;5058386;28;19916;-69
2023/01/02 06:42:52;;;;;;;;;;;29.40;90.10;;;;;;5057995;28;20567;-72
2023/01/02 06:45:18;;;;;;;;;;;29.20;90.40;;;;;;5060247;28;20424;-71
2023/01/02 06:47:45;;;;;;;;;;;29.10;90.30;;;;;;5057494;28;20003;-70
2023/01/02 06:50:11;;;;;;;;;;;28.90;90.60;;;;;;5058401;28;20338;-71
2023/01/02 06:52:38;;;;;;;;;;;28.70;90.90;;;;;;5056182;28;20011;-72
2023/01/02 06:55:05;;;;;;;;;;;28.70;91.00;;;;;;5057446;28;19952;-71
2023/01/02 06:57:31;;;;;;;;;;;28.70;91.10;;;;;;5057823;28;19919;-71
2023/01/02 06:59:58;;;;;;;;;;;28.70;91.20;;;;;;5064750;28;20038;-71
2023/01/02 07:02:25;;;;;;;;;;;28.80;91.20;;;;;;5053052;28;20024;-71
2023/01/02 07:04:51;;;;;;;;;;;28.70;91.20;;;;;;5058506;28;19919;-71
2023/01/02 07:07:18;;;;;;;;;;;28.60;91.60;;;;;;5067672;28;20369;-73
2023/01/02 07:09:45;;;;;;;;;;;28.60;91.60;;;;;;5063516;28;19913;-71
2023/01/02 07:12:11;;;;;;;;;;;28.60;91.70;;;;;;5069176;28;19916;-73
2023/01/02 07:14:38;;;;;;;;;;;28.70;91.80;;;;;;5058953;28;20327;-71
2023/01/02 07:17:05;;;;;;;;;;;28.80;91.80;;;;;;5070099;28;20381;-73
2023/01/02 07:19:31;;;;;;;;;;;28.90;91.70;;;;;;5066401;28;19951;-72
2023/01/02 07:21:58;;;;;;;;;;;28.90;91.70;;;;;;5057107;28;19919;-71
2023/01/02 07:24:24;;;;;;;;;;;28.80;91.70;;;;;;5063291;28;19999;-73
2023/01/02 07:26:51;;;;;;;;;;;28.60;91.90;;;;;;5069265;28;19916;-71
2023/01/02 07:29:18;;;;;;;;;;;28.30;92.00;;;;;;5067200;28;19913;-73
2023/01/02 07:31:44;;;;;;;;;;;28.10;92.20;;;;;;5070512;28;19962;-71
2023/01/02 07:34:11;;;;;;;;;;;27.90;92.20;;;;;;5068303;28;19968;-71
2023/01/02 07:36:37;;;;;;;;;;;27.70;92.70;;;;;;5065003;28;21750;-71
2023/01/02 07:39:04;;;;;;;;;;;27.50;92.80;;;;;;5064435;28;20333;-70
2023/01/02 07:41:31;;;;;;;;;;;27.40;93.00;;;;;;5067352;28;19913;-73
2023/01/02 07:43:57;;;;;;;;;;;27.20;93.20;;;;;;5067578;28;19969;-75
2023/01/02 07:46:24;;;;;;;;;;;27.20;93.10;;;;;;5069681;28;19919;-72
2023/01/02 07:48:51;;;;;;;;;;;27.10;93.10;;;;;;5067495;28;19946;-73
2023/01/02 07:51:18;;;;;;;;;;;27.00;93.30;;;;;;5066111;28;19940;-71
2023/01/02 07:53:45;;;;;;;;;;;26.90;93.50;;;;;;5066985;28;19913;-73
2023/01/02 07:56:11;;;;;;;;;;;26.80;93.70;;;;;;5065605;28;19912;-75
2023/01/02 07:58:38;;;;;;;;;;;26.70;93.70;;;;;;5065231;28;20026;-70
2023/01/02 08:01:06;;;;;;;;;;;26.70;93.80;;;;;;5068790;28;19912;-75
2023/01/02 08:03:33;;;;;;;;;;;26.70;94.00;;;;;;5066032;28;20355;-78
2023/01/02 08:06:03;;;;;;;;;;;26.70;94.00;;;;;;5067300;28;20323;-76
2023/01/02 08:08:30;;;;;;;;;;;26.70;94.10;;;;;;5066946;28;20376;-72
2023/01/02 08:10:56;;;;;;;;;;;26.70;94.10;;;;;;5070843;28;19913;-80
2023/01/02 08:13:23;;;;;;;;;;;26.60;94.10;;;;;;5068167;28;19913;-74
2023/01/02 08:15:50;;;;;;;;;;;26.60;94.40;;;;;;5070715;28;20015;-76
2023/01/02 08:18:17;;;;;;;;;;;26.60;94.40;;;;;;5067273;28;19921;-72
2023/01/02 08:20:43;;;;;;;;;;;26.80;94.30;;;;;;5070323;28;19912;-69
2023/01/02 08:23:10;;;;;;;;;;;26.80;94.30;;;;;;5071666;28;19921;-80
2023/01/02 08:25:36;;;;;;;;;;;26.70;94.30;;;;;;5068860;28;22202;-69
2023/01/02 08:28:03;;;;;;;;;;;26.60;94.40;;;;;;5070891;28;19912;-73
2023/01/02 08:30:30;;;;;;;;;;;26.50;94.60;;;;;;5070499;28;19920;-74
2023/01/02 08:32:56;;;;;;;;;;;26.50;94.90;;;;;;5070671;28;19922;-72
2023/01/02 08:35:23;;;;;;;;;;;26.50;94.80;;;;;;5070242;28;20445;-70
2023/01/02 08:37:50;;;;;;;;;;;26.60;94.80;;;;;;5067766;28;20051;-72
2023/01/02 08:40:16;;;;;;;;;;;26.60;94.80;;;;;;5072311;28;20309;-71
2023/01/02 08:42:43;;;;;;;;;;;26.60;95.10;;;;;;5070659;28;20012;-72
2023/01/02 08:45:10;;;;;;;;;;;26.60;95.10;;;;;;5066367;28;20011;-72
2023/01/02 08:47:36;;;;;;;;;;;26.60;94.80;;;;;;5067600;28;20381;-72
2023/01/02 08:50:03;;;;;;;;;;;26.40;95.20;;;;;;5071913;28;19952;-70
2023/01/02 08:52:30;;;;;;;;;;;26.30;95.20;;;;;;5069464;28;20327;-71
2023/01/02 08:54:56;;;;;;;;;;;26.20;95.40;;;;;;5069752;28;20378;-70
2023/01/02 08:57:23;;;;;;;;;;;26.00;95.90;;;;;;5072013;28;19947;-70
2023/01/02 08:59:50;;;;;;;;;;;25.80;96.00;;;;;;5065902;28;20346;-71
2023/01/02 09:02:16;;;;;;;;;;;25.80;96.30;;;;;;5069899;28;19920;-70
2023/01/02 09:04:43;;;;;;;;;;;25.70;96.50;;;;;;5063909;28;20289;-70
2023/01/02 09:07:10;;;;;;;;;;;25.70;96.70;;;;;;5071584;28;19921;-70
2023/01/02 09:09:36;;;;;;;;;;;25.60;96.90;;;;;;5070094;28;19938;-70
2023/01/02 09:12:04;;;;;;;;;;;25.60;96.90;;;;;;5070514;28;20397;-70
2023/01/02 09:14:30;;;;;;;;;;;25.60;97.00;;;;;;5068723;28;19934;-71
2023/01/02 09:16:57;;;;;;;;;;;25.50;97.10;;;;;;5066976;28;19966;-70
2023/01/02 09:19:24;;;;;;;;;;;25.40;97.30;;;;;;5067999;28;19927;-70
2023/01/02 09:21:51;;;;;;;;;;;25.40;97.60;;;;;;5072210;28;19955;-70
2023/01/02 09:24:18;;;;;;;;;;;25.30;97.80;;;;;;5069563;28;19959;-70
2023/01/02 09:26:44;;;;;;;;;;;25.30;98.00;;;;;;5066785;28;20383;-69
2023/01/02 09:29:12;;;;;;;;;;;25.30;97.80;;;;;;5061713;28;20363;-71
2023/01/02 09:31:39;;;;;;;;;;;25.20;98.00;;;;;;5071588;28;20283;-69
2023/01/02 09:34:06;;;;;;;;;;;25.20;97.90;;;;;;5069670;28;19912;-70
2023/01/02 09:36:33;;;;;;;;;;;25.10;97.90;;;;;;5065564;28;19965;-71
2023/01/02 09:39:00;;;;;;;;;;;25.00;98.20;;;;;;5068505;28;19935;-69
2023/01/02 09:41:30;;;;;;;;;;;25.00;98.20;;;;;;5071334;28;19969;-72
2023/01/02 09:44:05;;;;;;;;;;;24.90;98.50;;;;;;5064351;28;19908;-72
2023/01/02 09:46:36;;;;;;;;;;;24.90;98.50;;;;;;5066346;28;20003;-68
2023/01/02 09:49:03;;;;;;;;;;;24.90;98.30;;;;;;5061463;28;19915;-70
2023/01/02 09:51:30;;;;;;;;;;;24.90;98.40;;;;;;5071280;28;20310;-71
2023/01/02 09:53:57;;;;;;;;;;;24.90;98.50;;;;;;5064341;28;19917;-70
2023/01/02 09:56:36;;;;;;;;;;;24.70;98.60;;;;;;5053961;28;19913;-71
2023/01/02 09:59:15;;;;;;;;;;;24.70;98.90;;;;;;5065464;28;19920;-70
2023/01/02 10:01:48;;;;;;;;;;;24.60;99.00;;;;;;5068053;28;20286;-70
2023/01/02 10:04:14;;;;;;;;;;;24.70;98.90;;;;;;5068742;28;20431;-70
2023/01/02 10:06:53;;;;;;;;;;;24.70;99.10;;;;;;5067956;28;19908;-72
2023/01/02 10:09:29;;;;;;;;;;;24.80;98.80;;;;;;5060021;28;19917;-73
2023/01/02 10:12:01;;;;;;;;;;;24.70;99.00;;;;;;5067060;28;19921;-72
2023/01/02 10:14:37;;;;;;;;;;;24.70;98.90;;;;;;5065644;28;19912;-71
2023/01/02 10:17:05;;;;;;;;;;;24.70;98.90;;;;;;5069655;28;20370;-72
2023/01/02 10:19:37;;;;;;;;;;;24.80;99.10;;;;;;5065483;28;19924;-70
2023/01/02 10:22:04;;;;;;;;;;;24.80;99.00;;;;;;5069602;28;20032;-72
2023/01/02 10:24:38;;;;;;;;;;;24.70;99.30;;;;;;5062936;28;19916;-71
2023/01/02 10:27:06;;;;;;;;;;;24.50;99.60;;;;;;5065552;28;19999;-73
2023/01/02 10:29:36;;;;;;;;;;;24.30;99.90;;;;;;5067273;28;20367;-69
2023/01/02 10:32:10;;;;;;;;;;;24.20;99.90;;;;;;5069513;28;20377;-72
2023/01/02 10:34:42;;;;;;;;;;;24.20;99.90;;;;;;5071241;28;20366;-73
2023/01/02 10:37:13;;;;;;;;;;;24.20;99.90;;;;;;5057475;28;20406;-73
2023/01/02 10:39:41;;;;;;;;;;;24.30;99.90;;;;;;5064436;28;19951;-73
2023/01/02 10:42:10;;;;;;;;;;;24.20;99.90;;;;;;5067691;28;20351;-71
2023/01/02 10:44:38;;;;;;;;;;;24.20;99.90;;;;;;5064256;28;19936;-71
2023/01/02 10:47:31;;;;;;;;;;;24.20;99.90;;;;;;5068467;28;19920;-72
2023/01/02 10:49:57;;;;;;;;;;;24.20;99.90;;;;;;5062320;28;20002;-71
2023/01/02 10:52:30;;;;;;;;;;;24.30;99.90;;;;;;5072416;28;19922;-73
2023/01/02 10:55:04;;;;;;;;;;;24.40;99.90;;;;;;5064257;28;19916;-73
2023/01/02 10:57:50;;;;;;;;;;;24.50;99.90;;;;;;5067959;28;20011;-73
2023/01/02 11:00:20;;;;;;;;;;;24.50;99.90;;;;;;5069548;28;19936;-81
2023/01/02 11:02:50;;;;;;;;;;;24.50;99.90;;;;;;5060289;28;19920;-78
2023/01/02 11:05:19;;;;;;;;;;;24.40;99.90;;;;;;5064449;28;19989;-79
2023/01/02 11:07:50;;;;;;;;;;;24.30;99.90;;;;;;5065111;28;19916;-81
2023/01/02 11:10:25;;;;;;;;;;;24.20;99.90;;;;;;5064801;28;19919;-76
2023/01/02 11:12:52;;;;;;;;;;;24.10;99.90;;;;;;5067634;28;19920;-79
2023/01/02 11:15:29;;;;;;;;;;;24.10;99.90;;;;;;5068040;28;19917;-76
2023/01/02 11:17:57;;;;;;;;;;;24.10;99.90;;;;;;5063213;28;20043;-80
2023/01/02 11:20:28;;;;;;;;;;;24.00;99.90;;;;;;5066631;28;20289;-79
2023/01/02 11:22:57;;;;;;;;;;;24.00;99.90;;;;;;5067638;28;19923;-82
2023/01/02 11:25:36;;;;;;;;;;;23.90;99.90;;;;;;5066059;28;19928;-73
2023/01/02 11:28:03;;;;;;;;;;;24.00;99.90;;;;;;5060433;28;19989;-78
2023/01/02 11:30:36;;;;;;;;;;;23.90;99.90;;;;;;5063913;28;19920;-82
2023/01/02 11:33:03;;;;;;;;;;;23.90;99.90;;;;;;5064793;28;19974;-83
2023/01/02 11:35:49;;;;;;;;;;;23.80;99.90;;;;;;5059436;28;19928;-76
2023/01/02 11:38:18;;;;;;;;;;;23.70;99.90;;;;;;5063152;28;19924;-80
2023/01/02 11:40:52;;;;;;;;;;;23.60;99.90;;;;;;5069834;28;19916;-77
2023/01/02 11:46:11;;;;;;;;;;;23.60;99.90;;;;;;5069221;28;19923;-76
2023/01/02 11:48:38;;;;;;;;;;;23.60;99.90;;;;;;5070629;28;19919;-76
2023/01/02 11:51:08;;;;;;;;;;;23.60;99.90;;;;;;5072063;28;20260;-73
2023/01/02 11:53:39;;;;;;;;;;;23.60;99.90;;;;;;5067841;28;19943;-75
2023/01/02 11:56:10;;;;;;;;;;;23.60;99.90;;;;;;5069849;28;19919;-71
2023/01/02 11:58:51;;;;;;;;;;;23.60;99.90;;;;;;5070986;28;19925;-76
2023/01/02 12:01:20;;;;;;;;;;;23.50;99.90;;;;;;5067865;28;19916;-76
2023/01/02 12:03:47;;;;;;;;;;;23.50;99.90;;;;;;5055151;28;19923;-79
2023/01/02 12:06:14;;;;;;;;;;;23.50;99.90;;;;;;5068370;28;19994;-76
2023/01/02 12:09:02;;;;;;;;;;;23.40;99.90;;;;;;5057713;28;19927;-74
2023/01/02 12:11:29;;;;;;;;;;;23.40;99.90;;;;;;5059435;28;19917;-77
2023/01/02 12:14:13;;;;;;;;;;;23.30;99.90;;;;;;5069181;28;19923;-77
2023/01/02 12:16:50;;;;;;;;;;;23.30;99.90;;;;;;5066614;28;20305;-76
2023/01/02 12:19:27;;;;;;;;;;;23.30;99.90;;;;;;5063138;28;19927;-74
2023/01/02 12:21:57;;;;;;;;;;;23.20;99.90;;;;;;5071489;28;20266;-77
2023/01/02 12:24:40;;;;;;;;;;;23.20;99.90;;;;;;5064026;28;20370;-75
2023/01/02 12:27:15;;;;;;;;;;;23.20;99.90;;;;;;5062344;28;20012;-76
2023/01/02 12:29:41;;;;;;;;;;;23.20;99.90;;;;;;5069577;28;19917;-76
2023/01/02 12:32:08;;;;;;;;;;;23.10;99.90;;;;;;5069713;28;20367;-77
2023/01/02 12:34:43;;;;;;;;;;;23.20;99.90;;;;;;5064286;28;19969;-77
2023/01/02 12:37:20;;;;;;;;;;;23.20;99.90;;;;;;5065552;28;19921;-73
2023/01/02 12:39:49;;;;;;;;;;;23.20;99.90;;;;;;5069083;28;19938;-76
2023/01/02 12:42:29;;;;;;;;;;;23.20;99.90;;;;;;5071397;28;19912;-74
2023/01/02 12:44:57;;;;;;;;;;;23.10;99.90;;;;;;5065613;28;19916;-76
2023/01/02 12:47:28;;;;;;;;;;;23.10;99.90;;;;;;5071022;28;19908;-77
2023/01/02 12:50:04;;;;;;;;;;;23.00;99.90;;;;;;5071363;28;19923;-75
2023/01/02 12:52:30;;;;;;;;;;;23.10;99.90;;;;;;5056416;28;19913;-70
2023/01/02 12:55:17;;;;;;;;;;;23.00;99.90;;;;;;5076523;28;19912;-76
2023/01/02 12:58:02;;;;;;;;;;;23.00;99.90;;;;;;5061951;28;19912;-73
2023/01/02 13:00:47;;;;;;;;;;;23.00;99.90;;;;;;5070507;28;19919;-76
2023/01/02 13:03:26;;;;;;;;;;;22.90;99.90;;;;;;5052403;28;19963;-76
2023/01/02 13:05:54;;;;;;;;;;;22.90;99.90;;;;;;5053408;28;19921;-76
2023/01/02 13:08:26;;;;;;;;;;;22.80;99.90;;;;;;5062198;28;19913;-73
2023/01/02 13:10:53;;;;;;;;;;;22.80;99.90;;;;;;5068642;28;19935;-71
2023/01/02 13:13:22;;;;;;;;;;;22.80;99.90;;;;;;5069487;28;19950;-76
2023/01/02 13:15:49;;;;;;;;;;;22.80;99.90;;;;;;5071282;28;20298;-74
2023/01/02 13:18:16;;;;;;;;;;;22.80;99.90;;;;;;5056189;28;19924;-76
2023/01/02 13:20:43;;;;;;;;;;;22.80;99.90;;;;;;5071105;28;19912;-70
2023/01/02 13:23:12;;;;;;;;;;;22.80;99.90;;;;;;5069793;28;19948;-71
2023/01/02 13:25:43;;;;;;;;;;;22.80;99.90;;;;;;5088105;28;19991;-74
2023/01/02 13:28:11;;;;;;;;;;;22.80;99.90;;;;;;5064997;28;19938;-70
2023/01/02 13:30:43;;;;;;;;;;;22.80;99.90;;;;;;5068384;28;20022;-71
2023/01/02 13:33:20;;;;;;;;;;;22.80;99.90;;;;;;5064678;28;19921;-69
2023/01/02 13:35:47;;;;;;;;;;;22.70;99.90;;;;;;5070010;28;19917;-69
2023/01/02 13:38:15;;;;;;;;;;;22.70;99.90;;;;;;5058426;28;20326;-68
2023/01/02 13:40:42;;;;;;;;;;;22.70;99.90;;;;;;5070850;28;19995;-71
2023/01/02 13:43:14;;;;;;;;;;;22.70;99.90;;;;;;5066139;28;20359;-82
2023/01/02 13:45:44;;;;;;;;;;;22.60;99.90;;;;;;5094553;28;20011;-73
2023/01/02 13:48:29;;;;;;;;;;;22.60;99.90;;;;;;5061753;28;19919;-76
2023/01/02 13:51:04;;;;;;;;;;;22.50;99.90;;;;;;5054794;28;20377;-84
2023/01/02 13:53:31;;;;;;;;;;;22.50;99.90;;;;;;5064180;28;19996;-75
2023/01/02 13:56:01;;;;;;;;;;;22.40;99.90;;;;;;5061400;28;19918;-82
2023/01/02 13:58:41;;;;;;;;;;;22.40;99.90;;;;;;5068585;28;20378;-82
2023/01/02 14:01:23;;;;;;;;;;;22.40;99.90;;;;;;5069688;28;19913;-83
2023/01/02 14:04:14;;;;;;;;;;;22.40;99.90;;;;;;5056113;28;19916;-80
2023/01/02 14:06:42;;;;;;;;;;;22.40;99.90;;;;;;5060301;28;19916;-77
2023/01/02 14:09:13;;;;;;;;;;;22.40;99.90;;;;;;5068541;28;20136;-80
2023/01/02 14:12:12;;;;;;;;;;;22.40;99.90;;;;;;5062524;28;19920;-75
2023/01/02 14:14:42;;;;;;;;;;;22.40;99.90;;;;;;5043631;28;19947;-85
2023/01/02 14:17:11;;;;;;;;;;;22.40;99.90;;;;;;5070349;28;20003;-84
2023/01/02 14:19:42;;;;;;;;;;;22.40;99.90;;;;;;5061218;28;19925;-84
2023/01/02 14:22:17;;;;;;;;;;;22.30;99.90;;;;;;5056498;28;19956;-83
2023/01/02 14:24:48;;;;;;;;;;;22.30;99.90;;;;;;5067308;28;20371;-81
2023/01/02 14:27:15;;;;;;;;;;;22.30;99.90;;;;;;5060026;28;19917;-78
2023/01/02 14:29:43;;;;;;;;;;;22.30;99.90;;;;;;5055169;28;19916;-84
2023/01/02 14:32:21;;;;;;;;;;;22.20;99.90;;;;;;5075397;28;19942;-83
2023/01/02 14:34:49;;;;;;;;;;;22.10;99.90;;;;;;5052470;28;19999;-85
2023/01/02 14:37:45;;;;;;;;;;;22.10;99.90;;;;;;5066722;28;19936;-75